Terminal Aerodrome Forecast
Issued by NWS Albany, NY

Home | Current Version | Previous Version | Text Only | Print | Product List | Glossary On
Versions: 1 2 3 4 5 6 7 8 9 10 11 12 13 14 15 16
149
FTUS41 KALY 292320
TAFALB
TAF
KALB 292320Z 3000/3024 03008KT P6SM FEW050 SCT150
     FM300400 36004KT P6SM SCT250
     FM301500 01006KT P6SM SCT050 BKN150
     FM302300 VRB03KT P6SM VCSH BKN050 OVC100=

USA.gov is the U.S. government's official web portal to all federal, state and local government web resources and services.